createdAt,value
2023-05-02T00:00:16.605Z,6.00
2023-05-02T00:01:16.548Z,5.10
2023-05-02T00:02:16.637Z,8.50
2023-05-02T00:03:17.759Z,7.30
2023-05-02T00:04:16.681Z,5.90
2023-05-02T00:05:16.549Z,5.20
2023-05-02T00:06:16.566Z,5.40
2023-05-02T00:07:16.504Z,5.90
2023-05-02T00:08:16.492Z,6.10
2023-05-02T00:09:16.488Z,6.60
2023-05-02T00:10:16.504Z,4.70
2023-05-02T00:11:16.466Z,6.50
2023-05-02T00:12:16.459Z,6.90
2023-05-02T00:13:16.457Z,5.60
2023-05-02T00:14:16.449Z,6.20
2023-05-02T00:15:16.464Z,7.00
2023-05-02T00:16:16.457Z,5.50
2023-05-02T00:17:16.437Z,5.50
2023-05-02T00:18:16.458Z,6.20
2023-05-02T00:19:16.411Z,6.60
2023-05-02T00:20:16.422Z,6.00
2023-05-02T00:21:16.411Z,5.40
2023-05-02T00:22:16.388Z,5.60
2023-05-02T00:23:16.382Z,5.80
2023-05-02T00:24:16.379Z,6.00
2023-05-02T00:25:16.428Z,7.60
2023-05-02T00:26:16.356Z,5.90
2023-05-02T00:27:16.357Z,5.40
2023-05-02T00:28:16.355Z,7.80
2023-05-02T00:29:16.328Z,6.90
2023-05-02T00:30:16.358Z,6.40
2023-05-02T00:31:16.346Z,8.40
2023-05-02T00:32:16.310Z,5.20
2023-05-02T00:33:16.320Z,5.40
2023-05-02T00:34:16.308Z,5.30
2023-05-02T00:35:16.324Z,5.70
2023-05-02T00:36:16.295Z,6.20
2023-05-02T00:37:16.265Z,6.40
2023-05-02T00:38:16.262Z,5.00
2023-05-02T00:39:16.255Z,5.60
2023-05-02T00:40:16.272Z,6.90
2023-05-02T00:41:16.241Z,7.70
2023-05-02T00:42:16.240Z,5.80
2023-05-02T00:43:16.236Z,6.30
2023-05-02T00:44:16.217Z,6.60
2023-05-02T00:45:16.239Z,6.50
2023-05-02T00:46:16.236Z,6.90
2023-05-02T00:47:16.218Z,6.10
2023-05-02T00:48:16.209Z,6.80
2023-05-02T00:49:16.184Z,8.50
2023-05-02T00:50:16.196Z,7.50
2023-05-02T00:51:16.160Z,9.40
2023-05-02T00:52:16.155Z,5.60
2023-05-02T00:53:16.139Z,6.20
2023-05-02T00:54:16.141Z,7.50
2023-05-02T00:55:16.156Z,6.70
2023-05-02T00:56:16.124Z,5.00
2023-05-02T00:57:16.111Z,7.50
2023-05-02T00:58:16.103Z,6.40
2023-05-02T00:59:16.098Z,5.30
2023-05-02T01:00:16.120Z,7.50
2023-05-02T01:01:16.152Z,5.10
2023-05-02T01:02:16.125Z,6.30
2023-05-02T01:03:16.171Z,6.70
2023-05-02T01:04:16.177Z,5.60
2023-05-02T01:05:16.073Z,5.90
2023-05-02T01:06:16.120Z,5.80
2023-05-02T01:07:16.038Z,5.80
2023-05-02T01:08:16.032Z,5.70
2023-05-02T01:09:16.025Z,5.60
2023-05-02T01:10:16.044Z,6.10
2023-05-02T01:11:16.009Z,4.70
2023-05-02T01:12:16.003Z,6.40
2023-05-02T01:13:15.987Z,5.60
2023-05-02T01:14:15.981Z,5.60
2023-05-02T01:15:15.997Z,5.40
2023-05-02T01:16:15.992Z,6.10
2023-05-02T01:17:15.957Z,7.20
2023-05-02T01:18:15.949Z,7.00
2023-05-02T01:19:15.941Z,6.10
2023-05-02T01:20:15.979Z,7.30
2023-05-02T01:21:15.927Z,5.50
2023-05-02T01:22:15.926Z,7.40
2023-05-02T01:23:15.908Z,5.90
2023-05-02T01:24:15.901Z,6.20
2023-05-02T01:25:15.932Z,8.00
2023-05-02T01:26:15.888Z,6.60
2023-05-02T01:27:15.886Z,6.70
2023-05-02T01:28:15.873Z,4.80
2023-05-02T01:29:15.869Z,5.40
2023-05-02T01:30:15.889Z,5.40
2023-05-02T01:31:15.867Z,7.30
2023-05-02T01:32:15.853Z,5.30
2023-05-02T01:33:15.863Z,5.60
2023-05-02T01:34:15.821Z,5.00
2023-05-02T01:35:15.838Z,6.00
2023-05-02T01:36:15.804Z,5.20
2023-05-02T01:37:15.792Z,5.20
2023-05-02T01:38:15.793Z,6.20
2023-05-02T01:39:15.777Z,6.50
2023-05-02T01:40:15.797Z,7.80
2023-05-02T01:41:15.770Z,5.50
2023-05-02T01:42:15.754Z,5.20
2023-05-02T01:43:15.766Z,5.00
2023-05-02T01:44:15.746Z,5.10
2023-05-02T01:45:15.908Z,5.10
2023-05-02T01:46:15.841Z,6.50
2023-05-02T01:47:15.787Z,4.70
2023-05-02T01:48:15.719Z,6.10
2023-05-02T01:49:15.714Z,5.60
2023-05-02T01:50:15.875Z,5.10
2023-05-02T01:51:15.688Z,6.50
2023-05-02T01:52:15.693Z,6.50
2023-05-02T01:53:15.690Z,4.70
2023-05-02T01:54:15.658Z,5.80
2023-05-02T01:55:15.665Z,5.00
2023-05-02T01:56:15.679Z,7.90
2023-05-02T01:57:15.651Z,5.30
2023-05-02T01:58:15.641Z,5.00
2023-05-02T01:59:15.631Z,5.60
2023-05-02T02:00:15.622Z,7.00
2023-05-02T02:01:15.678Z,5.10
2023-05-02T02:02:15.633Z,5.40
2023-05-02T02:03:15.725Z,5.50
2023-05-02T02:04:15.662Z,5.70
2023-05-02T02:05:15.588Z,4.20
2023-05-02T02:06:15.611Z,5.20
2023-05-02T02:07:15.564Z,4.50
2023-05-02T02:08:15.558Z,4.60
2023-05-02T02:09:15.570Z,5.50
2023-05-02T02:10:15.541Z,6.80
2023-05-02T02:11:15.561Z,4.30
2023-05-02T02:12:15.523Z,5.70
2023-05-02T02:13:15.520Z,4.20
2023-05-02T02:14:15.510Z,4.80
2023-05-02T02:15:15.502Z,4.50
2023-05-02T02:16:15.535Z,4.50
2023-05-02T02:17:15.498Z,5.90
2023-05-02T02:18:15.480Z,6.50
2023-05-02T02:19:15.512Z,4.50
2023-05-02T02:20:15.460Z,5.60
2023-05-02T02:21:15.481Z,4.10
2023-05-02T02:22:15.451Z,5.10
2023-05-02T02:23:15.440Z,4.70
2023-05-02T02:24:15.427Z,5.90
2023-05-02T02:25:15.426Z,5.00
2023-05-02T02:26:15.438Z,4.10
2023-05-02T02:27:15.410Z,5.20
2023-05-02T02:28:15.403Z,6.50
2023-05-02T02:29:15.396Z,5.00
2023-05-02T02:30:15.390Z,4.60
2023-05-02T02:31:15.432Z,4.70
2023-05-02T02:32:15.386Z,5.00
2023-05-02T02:33:15.396Z,4.20
2023-05-02T02:34:15.364Z,5.80
2023-05-02T02:35:15.348Z,4.50
2023-05-02T02:36:15.365Z,6.50
2023-05-02T02:37:15.354Z,5.10
2023-05-02T02:38:15.328Z,4.70
2023-05-02T02:39:15.319Z,6.80
2023-05-02T02:40:15.305Z,5.30
2023-05-02T02:41:15.634Z,9.60
2023-05-02T02:42:15.303Z,4.90
2023-05-02T02:43:15.271Z,5.70
2023-05-02T02:44:15.269Z,5.20
2023-05-02T02:45:15.264Z,4.60
2023-05-02T02:46:15.480Z,5.60
2023-05-02T02:47:15.261Z,4.50
2023-05-02T02:48:15.298Z,6.30
2023-05-02T02:49:15.235Z,4.70
2023-05-02T02:50:15.219Z,6.50
2023-05-02T02:51:15.206Z,4.70
2023-05-02T02:52:15.227Z,6.30
2023-05-02T02:53:15.196Z,7.30
2023-05-02T02:54:25.745Z,5.60
2023-05-02T02:55:17.197Z,6.80
2023-05-02T02:56:15.183Z,4.60
2023-05-02T02:57:15.194Z,4.40
2023-05-02T02:58:15.154Z,7.60
2023-05-02T02:59:15.147Z,6.10
2023-05-02T03:00:15.143Z,8.80
2023-05-02T03:01:15.166Z,4.50
2023-05-02T03:02:15.150Z,6.50
2023-05-02T03:03:15.266Z,7.00
2023-05-02T03:04:15.156Z,6.80
2023-05-02T03:05:15.104Z,5.20
2023-05-02T03:06:15.103Z,4.20
2023-05-02T03:07:15.118Z,5.70
2023-05-02T03:08:15.084Z,5.00
2023-05-02T03:09:15.068Z,4.40
2023-05-02T03:10:15.062Z,5.30
2023-05-02T03:11:15.065Z,6.80
2023-05-02T03:12:15.092Z,4.60
2023-05-02T03:13:15.043Z,6.40
2023-05-02T03:14:15.060Z,5.10
2023-05-02T03:15:15.024Z,4.70
2023-05-02T03:16:15.140Z,6.50
2023-05-02T03:17:15.038Z,8.50
2023-05-02T03:18:15.023Z,4.50
2023-05-02T03:19:14.997Z,4.80
2023-05-02T03:20:14.991Z,5.80
2023-05-02T03:21:14.979Z,4.70
2023-05-02T03:22:14.999Z,6.00
2023-05-02T03:23:14.959Z,8.50
2023-05-02T03:24:17.136Z,6.10
2023-05-02T03:25:14.957Z,5.00
2023-05-02T03:26:14.935Z,4.80
2023-05-02T03:27:14.959Z,5.40
2023-05-02T03:28:14.992Z,5.70
2023-05-02T03:29:14.924Z,5.00
2023-05-02T03:30:14.914Z,5.00
2023-05-02T03:31:15.005Z,7.60
2023-05-02T03:32:14.948Z,7.40
2023-05-02T03:33:14.903Z,5.80
2023-05-02T03:34:14.877Z,5.90
2023-05-02T03:35:14.875Z,7.00
2023-05-02T03:36:14.861Z,5.00
2023-05-02T03:37:14.878Z,4.40
2023-05-02T03:38:14.844Z,5.10
2023-05-02T03:39:14.841Z,5.70
2023-05-02T03:40:14.884Z,6.30
2023-05-02T03:41:14.823Z,5.60
2023-05-02T03:42:14.836Z,8.20
2023-05-02T03:43:14.827Z,6.10
2023-05-02T03:44:14.801Z,5.20
2023-05-02T03:45:14.790Z,6.30
2023-05-02T03:46:14.835Z,7.20
2023-05-02T03:47:14.977Z,5.80
2023-05-02T03:48:14.788Z,4.90
2023-05-02T03:49:14.749Z,6.80
2023-05-02T03:50:15.749Z,4.70
2023-05-02T03:51:14.745Z,5.40
2023-05-02T03:52:14.741Z,4.70
2023-05-02T03:53:14.768Z,5.40
2023-05-02T03:54:14.793Z,7.20
2023-05-02T03:55:14.716Z,5.10
2023-05-02T03:56:14.712Z,4.80
2023-05-02T03:57:14.733Z,5.00
2023-05-02T03:58:14.704Z,4.90
2023-05-02T03:59:14.701Z,4.90
2023-05-02T04:00:14.678Z,7.40
2023-05-02T04:01:14.673Z,6.10
2023-05-02T04:02:14.733Z,6.70
2023-05-02T04:03:14.697Z,6.60
2023-05-02T04:04:14.667Z,5.50
2023-05-02T04:05:14.643Z,4.90
2023-05-02T04:06:14.651Z,6.20
2023-05-02T04:07:14.652Z,5.70
2023-05-02T04:08:14.623Z,5.30
2023-05-02T04:09:14.614Z,5.40
2023-05-02T04:10:14.609Z,4.80
2023-05-02T04:11:14.594Z,6.20
2023-05-02T04:12:14.612Z,6.20
2023-05-02T04:13:14.580Z,5.30
2023-05-02T04:14:14.568Z,6.30
2023-05-02T04:15:14.560Z,5.20
2023-05-02T04:16:14.621Z,6.70
2023-05-02T04:17:14.599Z,4.20
2023-05-02T04:18:14.621Z,7.80
2023-05-02T04:19:14.538Z,4.40
2023-05-02T04:20:14.534Z,5.40
2023-05-02T04:21:14.519Z,4.30
2023-05-02T04:22:14.688Z,5.50
2023-05-02T04:23:14.502Z,4.70
2023-05-02T04:24:14.495Z,4.50
2023-05-02T04:25:14.502Z,5.20
2023-05-02T04:26:14.483Z,5.40
2023-05-02T04:27:15.385Z,5.30
2023-05-02T04:28:15.466Z,6.80
2023-05-02T04:29:14.461Z,4.10
2023-05-02T04:30:14.439Z,4.70
2023-05-02T04:31:14.528Z,5.40
2023-05-02T04:32:14.425Z,4.70
2023-05-02T04:33:14.530Z,4.40
2023-05-02T04:34:14.433Z,6.40
2023-05-02T04:35:14.406Z,6.40
2023-05-02T04:36:14.402Z,4.00
2023-05-02T04:37:14.386Z,4.60
2023-05-02T04:38:14.408Z,5.50
2023-05-02T04:39:14.378Z,4.20
2023-05-02T04:40:14.375Z,5.30
2023-05-02T04:41:14.369Z,8.10
2023-05-02T04:42:14.382Z,22.10
2023-05-02T04:43:14.370Z,31.40
2023-05-02T04:44:14.334Z,26.30
2023-05-02T04:45:14.324Z,21.60
2023-05-02T04:46:14.350Z,12.70
2023-05-02T04:47:14.312Z,11.10
2023-05-02T04:48:14.392Z,12.60
2023-05-02T04:49:14.299Z,9.50
2023-05-02T04:50:14.290Z,8.90
2023-05-02T04:51:16.240Z,7.80
2023-05-02T04:52:14.271Z,9.30
2023-05-02T04:53:14.292Z,10.20
2023-05-02T04:54:14.258Z,7.70
2023-05-02T04:55:14.253Z,6.80
2023-05-02T04:56:14.258Z,6.40
2023-05-02T04:57:14.234Z,7.30
2023-05-02T04:58:14.255Z,6.60
2023-05-02T04:59:14.216Z,8.30
2023-05-02T05:00:14.220Z,8.00
2023-05-02T05:01:14.285Z,7.90
2023-05-02T05:02:14.278Z,8.00
2023-05-02T05:03:14.308Z,6.60
2023-05-02T05:04:14.293Z,4.20
2023-05-02T05:05:14.245Z,4.80
2023-05-02T05:06:14.226Z,4.10
2023-05-02T05:07:14.164Z,4.80
2023-05-02T05:08:14.183Z,3.20
2023-05-02T05:09:14.142Z,4.00
2023-05-02T05:10:14.148Z,3.90
2023-05-02T05:11:14.127Z,6.00
2023-05-02T05:12:14.112Z,4.10
2023-05-02T05:13:15.137Z,3.40
2023-05-02T05:14:14.103Z,4.80
2023-05-02T05:15:14.097Z,4.20
2023-05-02T05:16:14.144Z,4.10
2023-05-02T05:17:14.081Z,3.50
2023-05-02T05:18:14.214Z,3.80
2023-05-02T05:19:14.063Z,4.70
2023-05-02T05:20:14.069Z,7.30
2023-05-02T05:21:14.054Z,8.90
2023-05-02T05:22:14.071Z,9.20
2023-05-02T05:23:15.061Z,8.30
2023-05-02T05:24:14.038Z,7.80
2023-05-02T05:25:14.042Z,8.80
2023-05-02T05:26:14.015Z,8.00
2023-05-02T05:27:14.017Z,7.00
2023-05-02T05:28:14.037Z,5.30
2023-05-02T05:29:13.997Z,4.50
2023-05-02T05:30:14.000Z,5.30
2023-05-02T05:31:16.567Z,6.10
2023-05-02T05:32:15.032Z,5.60
2023-05-02T05:33:14.045Z,5.80
2023-05-02T05:34:14.046Z,7.40
2023-05-02T05:35:13.969Z,6.00
2023-05-02T05:36:13.954Z,8.80
2023-05-02T05:37:13.934Z,6.80
2023-05-02T05:38:13.947Z,6.80
2023-05-02T05:39:13.915Z,7.00
2023-05-02T05:40:13.914Z,5.00
2023-05-02T05:41:13.902Z,5.40
2023-05-02T05:42:13.902Z,5.30
2023-05-02T05:43:13.920Z,7.90
2023-05-02T05:44:13.880Z,5.20
2023-05-02T05:45:13.874Z,6.90
2023-05-02T05:46:13.866Z,6.20
2023-05-02T05:47:13.925Z,7.70
2023-05-02T05:48:14.119Z,7.50
2023-05-02T05:49:13.839Z,7.20
2023-05-02T05:50:13.839Z,5.70
2023-05-02T05:51:13.827Z,9.00
2023-05-02T05:52:13.819Z,6.50
2023-05-02T05:53:13.843Z,7.60
2023-05-02T05:54:13.805Z,7.20
2023-05-02T05:55:13.832Z,7.90
2023-05-02T05:56:13.786Z,7.20
2023-05-02T05:57:13.804Z,6.00
2023-05-02T05:58:13.810Z,6.10
2023-05-02T05:59:13.762Z,6.30
2023-05-02T06:00:13.759Z,5.70
2023-05-02T06:01:13.749Z,6.50
2023-05-02T06:02:13.769Z,7.80
2023-05-02T06:03:13.829Z,5.50
2023-05-02T06:04:14.044Z,5.70
2023-05-02T06:05:13.797Z,8.80
2023-05-02T06:06:13.796Z,7.00
2023-05-02T06:07:13.730Z,7.10
2023-05-02T06:08:13.696Z,6.50
2023-05-02T06:09:13.708Z,5.90
2023-05-02T06:10:13.683Z,6.30
2023-05-02T06:11:13.679Z,9.00
2023-05-02T06:12:13.660Z,8.80
2023-05-02T06:13:13.666Z,16.40
2023-05-02T06:14:13.668Z,14.20
2023-05-02T06:15:13.643Z,17.00
2023-05-02T06:16:13.691Z,19.30
2023-05-02T06:17:13.678Z,20.10
2023-05-02T06:18:13.690Z,22.80
2023-05-02T06:19:13.640Z,23.10
2023-05-02T06:20:13.618Z,22.50
2023-05-02T06:21:13.587Z,22.60
2023-05-02T06:22:14.591Z,21.20
2023-05-02T06:23:13.582Z,20.50
2023-05-02T06:24:13.594Z,21.00
2023-05-02T06:25:13.555Z,23.30
2023-05-02T06:26:13.554Z,23.40
2023-05-02T06:27:13.570Z,21.70
2023-05-02T06:28:13.538Z,25.00
2023-05-02T06:29:13.559Z,25.00
2023-05-02T06:30:13.529Z,25.90
2023-05-02T06:31:13.578Z,24.90
2023-05-02T06:32:13.512Z,28.30
2023-05-02T06:33:13.539Z,22.80
2023-05-02T06:34:13.511Z,26.20
2023-05-02T06:35:13.485Z,25.70
2023-05-02T06:36:13.472Z,24.50
2023-05-02T06:37:13.472Z,23.70
2023-05-02T06:38:13.464Z,24.70
2023-05-02T06:39:13.477Z,25.60
2023-05-02T06:40:13.453Z,23.90
2023-05-02T06:41:13.714Z,26.40
2023-05-02T06:42:13.428Z,24.50
2023-05-02T06:43:13.423Z,26.90
2023-05-02T06:44:13.441Z,25.00
2023-05-02T06:45:13.405Z,24.10
2023-05-02T06:46:13.408Z,27.40
2023-05-02T06:47:13.487Z,24.60
2023-05-02T06:48:13.486Z,22.50
2023-05-02T06:49:13.400Z,24.80
2023-05-02T06:50:13.364Z,23.20
2023-05-02T06:51:13.354Z,24.60
2023-05-02T06:52:13.366Z,23.00
2023-05-02T06:53:13.369Z,21.90
2023-05-02T06:54:13.357Z,23.60
2023-05-02T06:55:13.326Z,24.20
2023-05-02T06:56:13.320Z,22.10
2023-05-02T06:57:13.324Z,20.40
2023-05-02T06:58:13.299Z,19.30
2023-05-02T06:59:13.480Z,18.80
2023-05-02T07:00:13.297Z,21.50
2023-05-02T07:01:13.345Z,20.20
2023-05-02T07:02:13.279Z,21.70
2023-05-02T07:03:13.335Z,19.50
2023-05-02T07:04:13.521Z,20.60
2023-05-02T07:05:13.252Z,19.70
2023-05-02T07:06:13.250Z,18.80
2023-05-02T07:07:13.238Z,17.60
2023-05-02T07:08:13.229Z,21.80
2023-05-02T07:09:13.241Z,16.80
2023-05-02T07:10:13.238Z,17.00
2023-05-02T07:11:13.201Z,17.60
2023-05-02T07:12:13.209Z,17.40
2023-05-02T07:13:13.185Z,18.80
2023-05-02T07:14:13.210Z,16.80
2023-05-02T07:15:13.172Z,21.40
2023-05-02T07:16:13.186Z,19.20
2023-05-02T07:17:14.151Z,17.50
2023-05-02T07:18:13.234Z,17.90
2023-05-02T07:19:13.165Z,18.80
2023-05-02T07:20:13.156Z,19.00
2023-05-02T07:21:13.125Z,19.00
2023-05-02T07:22:13.113Z,20.10
2023-05-02T07:23:13.104Z,19.20
2023-05-02T07:24:13.094Z,18.50
2023-05-02T07:25:13.137Z,19.30
2023-05-02T07:26:13.084Z,19.80
2023-05-02T07:27:13.082Z,19.10
2023-05-02T07:28:13.069Z,20.80
2023-05-02T07:29:13.067Z,18.80
2023-05-02T07:30:13.078Z,19.10
2023-05-02T07:31:13.046Z,17.50
2023-05-02T07:32:13.181Z,20.10
2023-05-02T07:33:13.125Z,18.70
2023-05-02T07:34:13.026Z,18.70
2023-05-02T07:35:13.134Z,19.00
2023-05-02T07:36:13.007Z,20.40
2023-05-02T07:37:13.003Z,21.50
2023-05-02T07:38:12.994Z,19.70
2023-05-02T07:39:12.983Z,17.90
2023-05-02T07:40:13.002Z,19.50
2023-05-02T07:41:12.964Z,19.10
2023-05-02T07:42:12.961Z,20.50
2023-05-02T07:43:12.957Z,19.20
2023-05-02T07:44:12.973Z,19.60
2023-05-02T07:45:12.941Z,17.30
2023-05-02T07:46:12.991Z,22.00
2023-05-02T07:47:12.924Z,19.60
2023-05-02T07:48:12.978Z,17.80
2023-05-02T07:49:12.942Z,20.30
2023-05-02T07:50:12.907Z,18.40
2023-05-02T07:51:12.901Z,17.00
2023-05-02T07:52:12.891Z,17.60
2023-05-02T07:53:12.888Z,20.10
2023-05-02T07:54:12.900Z,17.10
2023-05-02T07:55:12.876Z,19.50
2023-05-02T07:56:12.864Z,17.40
2023-05-02T07:57:12.851Z,16.10
2023-05-02T07:58:12.839Z,17.00
2023-05-02T07:59:12.876Z,16.70
2023-05-02T08:00:12.825Z,14.50
2023-05-02T08:01:12.836Z,14.80
2023-05-02T08:02:12.835Z,14.50
2023-05-02T08:03:12.945Z,12.90
2023-05-02T08:04:12.982Z,15.10
2023-05-02T08:05:12.913Z,13.00
2023-05-02T08:06:12.805Z,16.20
2023-05-02T08:07:12.773Z,13.80
2023-05-02T08:08:12.763Z,14.80
2023-05-02T08:09:12.778Z,13.90
2023-05-02T08:10:12.746Z,14.70
2023-05-02T08:11:12.745Z,14.90
2023-05-02T08:12:12.729Z,13.60
2023-05-02T08:13:12.724Z,15.30
2023-05-02T08:14:12.785Z,15.30
2023-05-02T08:15:12.708Z,14.20
2023-05-02T08:16:12.883Z,16.40
2023-05-02T08:17:12.695Z,24.70
2023-05-02T08:18:12.798Z,20.50
2023-05-02T08:19:12.699Z,16.70
2023-05-02T08:20:12.684Z,17.20
2023-05-02T08:21:12.663Z,15.60
2023-05-02T08:22:12.658Z,13.20
2023-05-02T08:23:12.700Z,13.80
2023-05-02T08:24:12.657Z,15.20
2023-05-02T08:25:12.629Z,13.70
2023-05-02T08:26:12.621Z,13.10
2023-05-02T08:27:12.610Z,13.30
2023-05-02T08:28:13.638Z,15.00
2023-05-02T08:29:12.650Z,11.70
2023-05-02T08:30:12.596Z,12.20
2023-05-02T08:31:12.643Z,14.60
2023-05-02T08:32:12.636Z,12.50
2023-05-02T08:33:12.627Z,9.40
2023-05-02T08:34:12.587Z,8.50
2023-05-02T08:35:12.550Z,9.50
2023-05-02T08:36:12.544Z,7.50
2023-05-02T08:37:12.551Z,6.90
2023-05-02T08:38:12.532Z,6.90
2023-05-02T08:39:12.546Z,5.80
2023-05-02T08:40:12.534Z,5.50
2023-05-02T08:41:13.506Z,6.10
2023-05-02T08:42:12.505Z,5.70
2023-05-02T08:43:12.491Z,6.00
2023-05-02T08:44:12.559Z,5.70
2023-05-02T08:45:13.968Z,6.60
2023-05-02T08:46:12.477Z,5.10
2023-05-02T08:47:12.637Z,4.70
2023-05-02T08:48:12.509Z,4.30
2023-05-02T08:49:12.463Z,4.60
2023-05-02T08:50:12.433Z,3.50
2023-05-02T08:51:12.435Z,8.20
2023-05-02T08:52:12.432Z,4.90
2023-05-02T08:53:12.420Z,4.40
2023-05-02T08:54:12.427Z,5.90
2023-05-02T08:55:12.395Z,4.00
2023-05-02T08:56:12.383Z,4.70
2023-05-02T08:57:12.382Z,4.80
2023-05-02T08:58:13.816Z,4.20
2023-05-02T08:59:12.391Z,4.40
2023-05-02T09:00:12.365Z,4.80
2023-05-02T09:01:12.402Z,7.50
2023-05-02T09:02:12.369Z,5.60
2023-05-02T09:03:12.344Z,5.00
2023-05-02T09:04:12.409Z,5.30
2023-05-02T09:05:12.322Z,5.60
2023-05-02T09:06:12.365Z,5.10
2023-05-02T09:07:12.302Z,6.30
2023-05-02T09:08:12.300Z,5.40
2023-05-02T09:09:12.322Z,4.70
2023-05-02T09:10:12.285Z,4.30
2023-05-02T09:11:12.452Z,3.80
2023-05-02T09:12:12.270Z,3.50
2023-05-02T09:13:12.269Z,4.10
2023-05-02T09:14:12.252Z,5.40
2023-05-02T09:15:12.347Z,4.90
2023-05-02T09:16:12.263Z,4.50
2023-05-02T09:17:12.235Z,6.50
2023-05-02T09:18:12.221Z,6.30
2023-05-02T09:19:12.250Z,4.50
2023-05-02T09:20:12.221Z,3.90
2023-05-02T09:21:12.716Z,4.10
2023-05-02T09:22:12.189Z,4.10
2023-05-02T09:23:12.183Z,3.30
2023-05-02T09:24:12.216Z,4.30
2023-05-02T09:25:12.168Z,4.20
2023-05-02T09:26:12.163Z,2.90
2023-05-02T09:27:12.251Z,2.70
2023-05-02T09:28:12.164Z,2.10
2023-05-02T09:29:12.184Z,2.70
2023-05-02T09:30:12.135Z,4.00
2023-05-02T09:31:12.158Z,3.10
2023-05-02T09:32:12.163Z,4.10
2023-05-02T09:33:12.150Z,3.40
2023-05-02T09:34:12.304Z,3.70
2023-05-02T09:35:12.108Z,3.40
2023-05-02T09:36:12.088Z,2.40
2023-05-02T09:37:12.088Z,2.20
2023-05-02T09:38:12.078Z,2.40
2023-05-02T09:39:12.254Z,4.00
2023-05-02T09:40:12.072Z,2.90
2023-05-02T09:41:12.061Z,2.60
2023-05-02T09:42:12.048Z,2.80
2023-05-02T09:43:12.068Z,2.50
2023-05-02T09:44:12.037Z,2.60
2023-05-02T09:45:12.041Z,3.20
2023-05-02T09:46:12.042Z,2.80
2023-05-02T09:47:12.010Z,3.70
2023-05-02T09:48:12.005Z,3.10
2023-05-02T09:49:11.982Z,4.20
2023-05-02T09:50:12.022Z,2.60
2023-05-02T09:51:11.985Z,2.90
2023-05-02T09:52:11.990Z,2.70
2023-05-02T09:53:11.979Z,3.00
2023-05-02T09:54:11.950Z,2.60
2023-05-02T09:55:11.964Z,2.00
2023-05-02T09:56:11.945Z,2.40
2023-05-02T09:57:11.926Z,2.40
2023-05-02T09:58:11.922Z,1.70
2023-05-02T09:59:11.913Z,1.80
2023-05-02T10:00:11.947Z,3.20
2023-05-02T10:01:11.908Z,1.90
2023-05-02T10:02:12.254Z,2.20
2023-05-02T10:03:11.891Z,3.20
2023-05-02T10:04:11.931Z,2.60
2023-05-02T10:05:11.900Z,1.70
2023-05-02T10:06:11.880Z,5.00
2023-05-02T10:07:11.855Z,1.70
2023-05-02T10:08:11.850Z,1.70
2023-05-02T10:09:12.495Z,1.60
2023-05-02T10:10:11.860Z,3.80
2023-05-02T10:11:11.825Z,2.60
2023-05-02T10:12:11.816Z,5.80
2023-05-02T10:13:11.815Z,3.20
2023-05-02T10:14:11.793Z,4.20
2023-05-02T10:15:11.816Z,2.70
2023-05-02T10:16:11.874Z,2.20
2023-05-02T10:17:11.770Z,2.90
2023-05-02T10:18:11.788Z,2.50
2023-05-02T10:19:11.768Z,2.90
2023-05-02T10:20:11.777Z,2.80
2023-05-02T10:21:11.752Z,2.60
2023-05-02T10:22:11.725Z,2.70
2023-05-02T10:23:12.733Z,2.50
2023-05-02T10:24:11.722Z,1.80
2023-05-02T10:25:11.740Z,1.40
2023-05-02T10:26:11.704Z,1.20
2023-05-02T10:27:11.714Z,1.50
2023-05-02T10:28:11.685Z,1.80
2023-05-02T10:29:11.686Z,1.90
2023-05-02T10:30:11.702Z,1.70
2023-05-02T10:31:11.668Z,3.10
2023-05-02T10:32:11.662Z,2.20
2023-05-02T10:33:11.704Z,2.00
2023-05-02T10:34:11.656Z,1.70
2023-05-02T10:35:11.668Z,1.20
2023-05-02T10:36:11.628Z,2.10
2023-05-02T10:37:12.624Z,1.70
2023-05-02T10:38:11.610Z,1.40
2023-05-02T10:39:11.607Z,1.10
2023-05-02T10:40:11.654Z,1.10
2023-05-02T10:41:11.592Z,1.00
2023-05-02T10:42:11.587Z,1.60
2023-05-02T10:43:11.581Z,1.30
2023-05-02T10:44:11.576Z,1.30
2023-05-02T10:45:11.582Z,1.10
2023-05-02T10:46:11.572Z,1.20
2023-05-02T10:47:11.541Z,1.60
2023-05-02T10:48:11.563Z,1.90
2023-05-02T10:49:11.554Z,1.10
2023-05-02T10:50:11.540Z,1.30
2023-05-02T10:51:11.517Z,1.90
2023-05-02T10:52:11.509Z,1.20
2023-05-02T10:53:11.498Z,0.90
2023-05-02T10:54:11.487Z,1.10
2023-05-02T10:55:11.509Z,1.20
2023-05-02T10:56:11.481Z,2.90
2023-05-02T10:57:11.480Z,1.70
2023-05-02T10:58:11.458Z,2.50
2023-05-02T10:59:11.447Z,1.70
2023-05-02T11:00:11.621Z,1.80
2023-05-02T11:01:11.485Z,5.00
2023-05-02T11:02:11.473Z,1.50
2023-05-02T11:03:11.601Z,2.90
2023-05-02T11:04:11.415Z,1.60
2023-05-02T11:05:11.445Z,1.80
2023-05-02T11:06:11.478Z,1.80
2023-05-02T11:07:11.394Z,2.00
2023-05-02T11:08:11.403Z,2.30
2023-05-02T11:09:11.373Z,1.90
2023-05-02T11:10:11.369Z,1.60
2023-05-02T11:11:11.388Z,1.60
2023-05-02T11:12:11.348Z,3.00
2023-05-02T11:13:11.343Z,2.40
2023-05-02T11:14:11.326Z,1.70
2023-05-02T11:15:12.099Z,2.10
2023-05-02T11:16:11.355Z,1.80
2023-05-02T11:17:11.332Z,1.80
2023-05-02T11:18:11.324Z,2.10
2023-05-02T11:19:11.305Z,1.70
2023-05-02T11:20:11.294Z,1.30
2023-05-02T11:21:11.305Z,3.10
2023-05-02T11:22:11.270Z,1.60
2023-05-02T11:23:11.277Z,2.00
2023-05-02T11:24:11.264Z,1.80
2023-05-02T11:25:11.284Z,2.20
2023-05-02T11:26:11.245Z,1.50
2023-05-02T11:27:11.236Z,2.40
2023-05-02T11:28:11.229Z,1.60
2023-05-02T11:29:11.214Z,1.40
2023-05-02T11:30:11.240Z,1.70
2023-05-02T11:31:11.208Z,1.90
2023-05-02T11:32:12.244Z,1.90
2023-05-02T11:33:11.274Z,1.80
2023-05-02T11:34:11.177Z,1.50
2023-05-02T11:35:11.189Z,1.80
2023-05-02T11:36:11.167Z,1.40
2023-05-02T11:37:11.149Z,1.50
2023-05-02T11:38:11.149Z,1.70
2023-05-02T11:39:11.136Z,1.20
2023-05-02T11:40:11.159Z,1.50
2023-05-02T11:41:11.150Z,2.00
2023-05-02T11:42:11.113Z,1.60
2023-05-02T11:43:11.108Z,2.10
2023-05-02T11:44:11.116Z,1.50
2023-05-02T11:45:11.118Z,1.60
2023-05-02T11:46:11.129Z,1.60
2023-05-02T11:47:11.081Z,2.60
2023-05-02T11:48:11.099Z,1.40
2023-05-02T11:49:12.089Z,1.70
2023-05-02T11:50:11.086Z,1.20
2023-05-02T11:51:11.050Z,1.20
2023-05-02T11:52:11.046Z,1.80
2023-05-02T11:53:11.037Z,1.10
2023-05-02T11:54:11.033Z,1.20
2023-05-02T11:55:11.821Z,1.50
2023-05-02T11:56:12.018Z,1.90
2023-05-02T11:57:11.012Z,1.70
2023-05-02T11:58:10.997Z,3.00
2023-05-02T11:59:11.014Z,1.00
2023-05-02T12:00:11.010Z,1.60
2023-05-02T12:01:11.126Z,1.70
2023-05-02T12:02:11.013Z,1.70
2023-05-02T12:03:11.056Z,1.00
2023-05-02T12:04:10.946Z,1.30
2023-05-02T12:05:11.043Z,0.90
2023-05-02T12:06:11.159Z,1.40
2023-05-02T12:07:12.152Z,1.70
2023-05-02T12:08:12.515Z,3.50
2023-05-02T12:09:10.916Z,1.60
2023-05-02T12:10:11.060Z,1.40
2023-05-02T12:11:10.922Z,3.10
2023-05-02T12:12:10.888Z,2.40
2023-05-02T12:13:11.896Z,2.30
2023-05-02T12:14:10.871Z,1.20
2023-05-02T12:15:10.864Z,1.70
2023-05-02T12:16:10.962Z,1.90
2023-05-02T12:17:10.841Z,2.20
2023-05-02T12:18:10.854Z,1.70
2023-05-02T12:19:10.820Z,2.80
2023-05-02T12:20:10.916Z,3.60
2023-05-02T12:21:10.844Z,1.40
2023-05-02T12:22:10.798Z,1.50
2023-05-02T12:23:10.814Z,1.20
2023-05-02T12:24:10.857Z,1.20
2023-05-02T12:25:10.805Z,1.80
2023-05-02T12:26:10.785Z,1.80
2023-05-02T12:27:10.762Z,4.20
2023-05-02T12:28:10.765Z,1.70
2023-05-02T12:29:10.750Z,2.00
2023-05-02T12:30:10.787Z,1.40
2023-05-02T12:31:10.810Z,2.30
2023-05-02T12:32:10.719Z,1.60
2023-05-02T12:33:10.723Z,1.60
2023-05-02T12:34:10.710Z,2.30
2023-05-02T12:35:10.726Z,2.30
2023-05-02T12:36:10.693Z,2.20
2023-05-02T12:37:10.680Z,3.50
2023-05-02T12:38:10.679Z,2.70
2023-05-02T12:39:10.665Z,2.30
2023-05-02T12:40:10.725Z,2.40
2023-05-02T12:41:10.651Z,1.70
2023-05-02T12:42:10.637Z,1.80
2023-05-02T12:43:10.671Z,3.40
2023-05-02T12:44:10.628Z,2.70
2023-05-02T12:45:10.649Z,1.60
2023-05-02T12:46:10.617Z,4.90
2023-05-02T12:47:11.674Z,3.50
2023-05-02T12:48:10.605Z,1.50
2023-05-02T12:49:10.582Z,2.20
2023-05-02T12:50:10.625Z,2.50
2023-05-02T12:51:10.569Z,3.00
2023-05-02T12:52:10.568Z,2.10
2023-05-02T12:53:10.559Z,3.10
2023-05-02T12:54:10.549Z,2.20
2023-05-02T12:55:10.716Z,8.20
2023-05-02T12:56:10.541Z,2.60
2023-05-02T12:57:10.524Z,3.60
2023-05-02T12:58:10.514Z,4.00
2023-05-02T12:59:10.520Z,2.40
2023-05-02T13:00:10.534Z,3.10
2023-05-02T13:01:10.576Z,2.40
2023-05-02T13:02:10.485Z,4.70
2023-05-02T13:03:10.562Z,3.70
2023-05-02T13:04:10.595Z,4.00
2023-05-02T13:05:10.478Z,3.90
2023-05-02T13:06:10.531Z,4.80
2023-05-02T13:07:10.449Z,2.40
2023-05-02T13:08:10.441Z,2.40
2023-05-02T13:09:10.436Z,3.50
2023-05-02T13:10:10.436Z,2.40
2023-05-02T13:11:10.452Z,4.60
2023-05-02T13:12:10.416Z,3.60
2023-05-02T13:13:10.408Z,4.00